Little Diomede, Alaska
Current Conditions -  °F | °C
As of 11:58 AM on Tuesday 21 Oct 2014 (Local Time) from PATE Reporting Station
Overcast Overcast  
Wind Chill: 20°   Ceiling: 4700
Heat Index: 30°   Visibility: 10mi
Dew Point: 26°   Wind: 14mph
Humidity: 85%   Direction: 40°NE
Pressure: 29.56"   Gusts: NA
Location:  65.1617°N, 164.975°W
Report Text: PATE 211958Z AUTO 04012KT 10SM OVC047 M01/M03 A2956 RMK AO2 SLP022 T10111033 FZRANO
Loading
Personal Weather Stations






























Interactive Weather Map
Tropical Storm Tracking
New forecast layout! Learn more

10-Day Weather Forecast

Advertisements
Track Severe Weather on mobile